createdAt,value
2022-09-28T00:00:33.372Z,2.90
2022-09-28T00:05:35.560Z,2.65
2022-09-28T00:10:37.604Z,2.60
2022-09-28T00:15:39.356Z,2.70
2022-09-28T00:20:41.082Z,2.67
2022-09-28T00:25:42.774Z,2.70
2022-09-28T00:30:44.481Z,3.92
2022-09-28T00:35:46.224Z,2.70
2022-09-28T00:40:47.962Z,3.42
2022-09-28T00:45:59.030Z,3.55
2022-09-28T00:51:06.225Z,3.75
2022-09-28T00:56:13.954Z,3.17
2022-09-28T01:01:16.340Z,2.85
2022-09-28T01:06:21.557Z,3.08
2022-09-28T01:11:24.363Z,2.85
2022-09-28T01:16:52.701Z,3.00
2022-09-28T01:22:18.720Z,3.17
2022-09-28T01:27:30.836Z,3.38
2022-09-28T01:32:49.429Z,2.63
2022-09-28T01:38:05.306Z,3.03
2022-09-28T01:43:14.800Z,3.35
2022-09-28T01:48:26.322Z,3.55
2022-09-28T01:53:41.166Z,3.17
2022-09-28T02:03:56.593Z,3.10
2022-09-28T02:09:04.410Z,3.28
2022-09-28T02:14:17.370Z,3.30
2022-09-28T02:19:24.382Z,3.15
2022-09-28T02:24:43.779Z,3.75
2022-09-28T02:29:51.956Z,3.60
2022-09-28T02:34:55.438Z,3.90
2022-09-28T02:39:57.261Z,4.10
2022-09-28T02:45:07.869Z,4.70
2022-09-28T02:50:16.065Z,4.50
2022-09-28T02:55:30.092Z,4.53
2022-09-28T03:00:43.733Z,4.70
2022-09-28T03:06:18.681Z,4.70
2022-09-28T03:11:32.024Z,4.78
2022-09-28T03:16:34.098Z,4.70
2022-09-28T03:21:36.758Z,5.05
2022-09-28T03:26:39.145Z,5.30
2022-09-28T03:31:41.485Z,5.53
2022-09-28T03:36:43.388Z,5.55
2022-09-28T03:41:45.114Z,6.07
2022-09-28T03:46:47.028Z,5.75
2022-09-28T03:51:48.818Z,6.43
2022-09-28T03:56:51.886Z,6.47
2022-09-28T04:01:53.691Z,5.82
2022-09-28T04:06:55.471Z,5.70
2022-09-28T04:12:03.762Z,6.07
2022-09-28T04:17:07.125Z,6.03
2022-09-28T04:22:09.521Z,5.93
2022-09-28T04:27:29.773Z,6.40
2022-09-28T04:32:31.527Z,6.32
2022-09-28T04:37:33.785Z,6.05
2022-09-28T04:42:37.013Z,6.80
2022-09-28T04:47:38.819Z,6.18
2022-09-28T04:53:02.516Z,6.75
2022-09-28T04:58:04.696Z,6.95
2022-09-28T05:03:07.279Z,6.63
2022-09-28T05:08:35.800Z,6.53
2022-09-28T05:13:43.185Z,6.45
2022-09-28T05:18:44.969Z,6.60
2022-09-28T05:23:47.983Z,5.85
2022-09-28T05:28:50.794Z,6.22
2022-09-28T05:34:11.069Z,6.10
2022-09-28T05:39:13.218Z,6.40
2022-09-28T05:44:15.158Z,5.97
2022-09-28T05:49:17.675Z,6.18
2022-09-28T05:54:19.612Z,6.35
2022-09-28T05:59:22.125Z,6.32
2022-09-28T06:04:24.483Z,6.22
2022-09-28T06:09:26.452Z,6.30
2022-09-28T06:14:49.911Z,5.75
2022-09-28T06:19:52.269Z,6.38
2022-09-28T06:25:02.526Z,6.40
2022-09-28T06:30:04.673Z,6.50
2022-09-28T06:35:08.033Z,6.55
2022-09-28T06:40:10.727Z,6.80
2022-09-28T06:45:13.494Z,6.45
2022-09-28T06:50:40.151Z,7.43
2022-09-28T06:56:02.583Z,7.38
2022-09-28T07:01:05.734Z,7.65
2022-09-28T07:06:32.323Z,7.70
2022-09-28T07:11:53.504Z,8.30
2022-09-28T07:17:18.200Z,8.80
2022-09-28T07:22:29.586Z,9.80
2022-09-28T07:27:39.867Z,8.20
2022-09-28T07:32:51.689Z,8.02
2022-09-28T07:38:33.097Z,8.30
2022-09-28T07:43:36.118Z,8.50
2022-09-28T07:48:42.759Z,8.52
2022-09-28T07:53:59.654Z,8.30
2022-09-28T07:59:17.502Z,7.70
2022-09-28T08:04:37.869Z,8.10
2022-09-28T08:09:39.768Z,8.45
2022-09-28T08:15:00.177Z,7.85
2022-09-28T08:20:29.666Z,7.85
2022-09-28T08:25:31.641Z,7.40
2022-09-28T08:30:36.718Z,7.22
2022-09-28T08:36:01.744Z,6.95
2022-09-28T08:41:39.093Z,6.70
2022-09-28T08:47:06.482Z,7.00
2022-09-28T08:52:47.583Z,7.45
2022-09-28T08:58:18.152Z,7.10
2022-09-28T09:03:26.742Z,7.55
2022-09-28T09:08:52.466Z,6.80
2022-09-28T09:14:27.531Z,5.90
2022-09-28T09:19:42.725Z,5.97
2022-09-28T09:25:25.574Z,6.03
2022-09-28T09:30:40.534Z,5.00
2022-09-28T09:35:45.785Z,5.07
2022-09-28T09:41:27.221Z,4.63
2022-09-28T09:47:11.028Z,4.47
2022-09-28T09:52:57.386Z,3.75
2022-09-28T09:58:28.805Z,3.95
2022-09-28T10:03:48.688Z,1.95
2022-09-28T10:09:16.820Z,1.85
2022-09-28T10:14:22.130Z,1.60
2022-09-28T10:19:37.114Z,1.40
2022-09-28T10:25:09.865Z,1.63
2022-09-28T10:30:19.085Z,1.60
2022-09-28T10:35:27.123Z,1.23
2022-09-28T10:40:47.161Z,1.60
2022-09-28T10:46:00.875Z,1.67
2022-09-28T10:51:07.470Z,1.10
2022-09-28T10:56:22.377Z,1.20
2022-09-28T11:01:33.751Z,1.40
2022-09-28T11:06:38.933Z,1.40
2022-09-28T11:11:43.927Z,1.85
2022-09-28T11:16:46.259Z,2.10
2022-09-28T11:21:48.813Z,1.70
2022-09-28T11:27:00.118Z,2.40
2022-09-28T11:32:05.631Z,2.50
2022-09-28T11:37:27.854Z,2.30
2022-09-28T11:42:58.718Z,2.20
2022-09-28T11:48:13.356Z,2.00
2022-09-28T11:53:34.953Z,2.10
2022-09-28T11:58:50.725Z,1.83
2022-09-28T12:04:03.676Z,1.90
2022-09-28T12:14:35.646Z,1.50
2022-09-28T12:19:48.665Z,1.30
2022-09-28T12:24:54.406Z,1.30
2022-09-28T12:30:19.279Z,0.98
2022-09-28T12:35:43.527Z,1.08
2022-09-28T12:40:59.279Z,1.38
2022-09-28T12:46:42.295Z,0.90
2022-09-28T12:51:54.928Z,1.00
2022-09-28T12:57:00.663Z,1.25
2022-09-28T13:02:24.308Z,0.90
2022-09-28T13:07:28.784Z,1.08
2022-09-28T13:12:37.277Z,0.70
2022-09-28T13:17:55.314Z,0.75
2022-09-28T13:23:57.886Z,1.00
2022-09-28T13:29:15.611Z,0.90
2022-09-28T13:34:22.586Z,1.17
2022-09-28T13:39:56.281Z,0.70
2022-09-28T13:45:19.434Z,0.88
2022-09-28T13:51:05.643Z,1.02
2022-09-28T13:56:42.706Z,0.93
2022-09-28T14:01:55.878Z,1.00
2022-09-28T14:07:11.443Z,1.10
2022-09-28T14:12:35.167Z,0.80
2022-09-28T14:17:53.866Z,0.70
2022-09-28T14:23:02.552Z,1.23
2022-09-28T14:28:26.255Z,0.80
2022-09-28T14:33:31.402Z,1.23
2022-09-28T14:39:04.063Z,1.00
2022-09-28T14:44:10.618Z,1.40
2022-09-28T14:49:19.579Z,1.00
2022-09-28T14:54:23.498Z,1.35
2022-09-28T14:59:26.681Z,1.70
2022-09-28T15:04:30.632Z,1.60
2022-09-28T15:09:34.634Z,1.77
2022-09-28T15:14:46.119Z,1.63
2022-09-28T15:20:07.149Z,1.30
2022-09-28T15:25:14.841Z,1.38
2022-09-28T15:30:19.653Z,1.65
2022-09-28T15:35:24.331Z,1.42
2022-09-28T15:40:35.148Z,1.42
2022-09-28T15:45:40.540Z,1.60
2022-09-28T15:50:53.566Z,1.52
2022-09-28T15:56:03.520Z,1.60
2022-09-28T16:01:35.960Z,1.60
2022-09-28T16:06:38.515Z,2.55
2022-09-28T16:11:41.168Z,1.90
2022-09-28T16:16:48.730Z,1.80
2022-09-28T16:21:53.459Z,2.33
2022-09-28T16:26:59.645Z,1.77
2022-09-28T16:32:26.248Z,2.38
2022-09-28T16:37:32.067Z,2.60
2022-09-28T16:42:33.991Z,2.72
2022-09-28T16:47:35.978Z,2.85
2022-09-28T16:52:59.840Z,2.72
2022-09-28T16:58:04.529Z,3.20
2022-09-28T17:03:18.376Z,3.60
2022-09-28T17:08:22.596Z,3.30
2022-09-28T17:13:36.033Z,4.30
2022-09-28T17:18:39.142Z,4.60
2022-09-28T17:23:41.164Z,4.72
2022-09-28T17:28:42.865Z,4.80
2022-09-28T17:33:45.230Z,4.38
2022-09-28T17:38:48.255Z,4.68
2022-09-28T17:43:49.984Z,5.05
2022-09-28T17:48:51.864Z,4.78
2022-09-28T17:53:56.058Z,5.18
2022-09-28T17:59:04.780Z,4.60
2022-09-28T18:04:08.959Z,4.30
2022-09-28T18:09:14.846Z,3.95
2022-09-28T18:14:16.619Z,4.20
2022-09-28T18:19:18.402Z,3.70
2022-09-28T18:24:20.253Z,3.70
2022-09-28T18:29:22.057Z,3.70
2022-09-28T18:34:23.906Z,3.97
2022-09-28T18:39:26.513Z,3.83
2022-09-28T18:44:28.435Z,4.20
2022-09-28T18:49:30.790Z,4.20
2022-09-28T18:54:33.143Z,3.70
2022-09-28T18:59:34.884Z,5.20
2022-09-28T19:04:36.826Z,5.95
2022-09-28T19:09:43.868Z,5.65
2022-09-28T19:14:45.787Z,6.60
2022-09-28T19:19:47.495Z,5.68
2022-09-28T19:24:49.291Z,6.03
2022-09-28T19:29:51.464Z,5.88
2022-09-28T19:34:53.231Z,6.70
2022-09-28T19:39:54.985Z,7.00
2022-09-28T19:44:57.229Z,6.57
2022-09-28T19:49:58.986Z,6.78
2022-09-28T19:55:01.032Z,7.43
2022-09-28T20:00:03.852Z,7.45
2022-09-28T20:05:08.560Z,6.43
2022-09-28T20:10:11.949Z,6.35
2022-09-28T20:15:13.790Z,6.28
2022-09-28T20:20:16.584Z,6.50
2022-09-28T20:25:18.497Z,7.40
2022-09-28T20:30:20.616Z,6.32
2022-09-28T20:35:32.353Z,6.82
2022-09-28T20:40:36.549Z,6.47
2022-09-28T20:45:38.356Z,6.90
2022-09-28T20:50:41.218Z,7.40
2022-09-28T20:55:42.946Z,8.18
2022-09-28T21:00:44.702Z,8.93
2022-09-28T21:05:46.430Z,9.27
2022-09-28T21:10:50.283Z,8.73
2022-09-28T21:15:52.847Z,9.02
2022-09-28T21:20:54.764Z,8.00
2022-09-28T21:26:03.443Z,7.95
2022-09-28T21:31:07.232Z,8.57
2022-09-28T21:36:10.334Z,6.82
2022-09-28T21:41:12.067Z,7.47
2022-09-28T21:46:13.959Z,6.10
2022-09-28T21:51:16.191Z,6.68
2022-09-28T21:56:17.934Z,6.60
2022-09-28T22:01:21.837Z,5.72
2022-09-28T22:06:29.531Z,6.43
2022-09-28T22:11:31.373Z,5.53
2022-09-28T22:16:33.235Z,5.07
2022-09-28T22:21:35.386Z,5.32
2022-09-28T22:26:37.879Z,5.43
2022-09-28T22:31:41.190Z,5.45
2022-09-28T22:36:43.072Z,5.53
2022-09-28T22:41:44.825Z,4.72
2022-09-28T22:46:46.887Z,5.03
2022-09-28T22:51:49.059Z,5.18
2022-09-28T22:56:50.802Z,4.82
2022-09-28T23:01:52.543Z,5.30
2022-09-28T23:06:54.539Z,5.03
2022-09-28T23:11:56.303Z,5.20
2022-09-28T23:16:58.002Z,5.43
2022-09-28T23:21:59.701Z,5.10
2022-09-28T23:27:01.401Z,4.82
2022-09-28T23:32:03.134Z,5.50
2022-09-28T23:37:04.997Z,5.43
2022-09-28T23:42:06.699Z,5.82
2022-09-28T23:47:08.708Z,6.55
2022-09-28T23:52:10.562Z,6.28
2022-09-28T23:57:12.295Z,5.95
